createdAt,value
2019-02-14T00:01:56.825Z,50.43
2019-02-14T00:06:59.951Z,50.83
2019-02-14T00:12:02.467Z,51.47
2019-02-14T00:17:05.474Z,52.53
2019-02-14T00:22:08.564Z,48.90
2019-02-14T00:27:10.717Z,48.70
2019-02-14T00:32:13.175Z,46.90
2019-02-14T00:37:15.343Z,48.07
2019-02-14T00:42:17.547Z,51.23
2019-02-14T00:47:20.105Z,47.50
2019-02-14T00:52:23.109Z,47.70
2019-02-14T00:57:26.534Z,57.37
2019-02-14T01:02:29.245Z,48.50
2019-02-14T01:07:31.537Z,50.10
2019-02-14T01:12:33.720Z,47.53
2019-02-14T01:17:36.477Z,46.17
2019-02-14T01:22:38.987Z,46.80
2019-02-14T01:27:41.405Z,44.63
2019-02-14T01:32:44.986Z,44.43
2019-02-14T01:37:48.239Z,47.17
2019-02-14T01:42:50.754Z,51.63
2019-02-14T01:47:53.459Z,48.63
2019-02-14T01:52:55.624Z,48.23
2019-02-14T01:57:57.799Z,47.40
2019-02-14T02:03:00.032Z,42.57
2019-02-14T02:08:02.858Z,44.47
2019-02-14T02:13:05.635Z,48.17
2019-02-14T02:18:07.829Z,41.57
2019-02-14T02:23:10.325Z,40.77
2019-02-14T02:28:13.141Z,39.37
2019-02-14T02:33:15.993Z,41.80
2019-02-14T02:38:18.178Z,37.77
2019-02-14T02:43:21.089Z,38.27
2019-02-14T02:48:23.884Z,37.10
2019-02-14T02:53:26.367Z,35.40
2019-02-14T02:58:28.691Z,36.87
2019-02-14T03:03:30.877Z,36.60
2019-02-14T03:08:33.346Z,33.23
2019-02-14T03:13:35.531Z,36.53
2019-02-14T03:18:37.786Z,38.40
2019-02-14T03:23:40.514Z,35.20
2019-02-14T03:28:42.908Z,36.90
2019-02-14T03:33:47.042Z,30.37
2019-02-14T03:38:50.336Z,31.73
2019-02-14T03:43:52.519Z,37.97
2019-02-14T03:48:55.629Z,35.07
2019-02-14T03:53:57.826Z,34.90
2019-02-14T03:59:00.056Z,32.17
2019-02-14T04:04:03.230Z,35.90
2019-02-14T04:09:07.190Z,33.20
2019-02-14T04:14:09.353Z,29.77
2019-02-14T04:19:12.172Z,31.83
2019-02-14T04:24:14.919Z,28.03
2019-02-14T04:29:17.422Z,31.20
2019-02-14T04:34:20.183Z,29.90
2019-02-14T04:39:22.607Z,30.17
2019-02-14T04:44:24.803Z,29.10
2019-02-14T04:49:27.019Z,30.53
2019-02-14T04:54:29.775Z,34.40
2019-02-14T04:59:32.650Z,32.90
2019-02-14T05:04:35.647Z,33.23
2019-02-14T05:09:38.668Z,35.77
2019-02-14T05:14:41.389Z,28.80
2019-02-14T05:19:43.738Z,34.33
2019-02-14T05:24:46.088Z,32.93
2019-02-14T05:29:48.377Z,28.97
2019-02-14T05:34:50.626Z,32.60
2019-02-14T05:39:52.901Z,29.60
2019-02-14T05:44:55.095Z,34.90
2019-02-14T05:49:58.004Z,30.20
2019-02-14T05:55:00.787Z,34.90
2019-02-14T06:00:04.366Z,32.47
2019-02-14T06:05:07.996Z,41.13
2019-02-14T06:10:10.841Z,29.73
2019-02-14T06:15:13.735Z,29.23
2019-02-14T06:20:16.804Z,29.93
2019-02-14T06:25:19.320Z,36.67
2019-02-14T06:30:22.226Z,33.00
2019-02-14T06:35:24.698Z,29.70
2019-02-14T06:40:26.886Z,26.87
2019-02-14T06:45:29.131Z,29.67
2019-02-14T06:50:34.829Z,34.83
2019-02-14T06:55:35.838Z,32.10
2019-02-14T07:00:38.349Z,31.63
2019-02-14T07:05:41.627Z,33.13
2019-02-14T07:10:44.564Z,30.30
2019-02-14T07:15:47.042Z,30.93
2019-02-14T07:20:49.231Z,29.57
2019-02-14T07:25:52.335Z,29.57
2019-02-14T07:30:55.423Z,34.50
2019-02-14T07:35:57.797Z,33.23
2019-02-14T07:41:00.269Z,29.90
2019-02-14T07:46:02.876Z,30.87
2019-02-14T07:51:05.092Z,35.10
2019-02-14T07:56:08.101Z,33.53
2019-02-14T08:01:10.917Z,34.10
2019-02-14T08:06:13.412Z,33.70
2019-02-14T08:11:16.420Z,35.57
2019-02-14T08:16:18.568Z,32.30
2019-02-14T08:21:21.957Z,31.47
2019-02-14T08:26:25.591Z,35.63
2019-02-14T08:31:28.247Z,29.03
2019-02-14T08:36:31.377Z,33.40
2019-02-14T08:41:33.659Z,33.10
2019-02-14T08:46:35.809Z,35.87
2019-02-14T08:51:38.002Z,29.50
2019-02-14T08:56:40.432Z,29.47
2019-02-14T09:01:42.660Z,30.17
2019-02-14T09:06:45.087Z,30.80
2019-02-14T09:11:47.262Z,35.93
2019-02-14T09:16:49.464Z,31.27
2019-02-14T09:21:52.063Z,29.43
2019-02-14T09:26:54.398Z,28.90
2019-02-14T09:31:56.901Z,28.60
2019-02-14T09:36:59.442Z,29.60
2019-02-14T09:42:01.999Z,28.90
2019-02-14T09:47:04.586Z,25.17
2019-02-14T09:52:07.434Z,32.47
2019-02-14T09:57:09.953Z,28.40
2019-02-14T10:02:12.745Z,28.20
2019-02-14T10:07:15.649Z,32.67
2019-02-14T10:12:18.446Z,30.90
2019-02-14T10:17:22.304Z,27.90
2019-02-14T10:22:25.172Z,29.53
2019-02-14T10:27:27.374Z,28.10
2019-02-14T10:32:30.076Z,28.47
2019-02-14T10:37:32.742Z,23.97
2019-02-14T10:42:35.284Z,26.53
2019-02-14T10:47:37.808Z,27.33
2019-02-14T10:52:41.605Z,24.00
2019-02-14T10:57:45.323Z,29.47
2019-02-14T11:02:49.561Z,27.70
2019-02-14T11:07:52.589Z,18.13
2019-02-14T11:12:54.983Z,20.87
2019-02-14T11:17:58.055Z,22.27
2019-02-14T11:23:00.968Z,19.57
2019-02-14T11:28:03.403Z,18.80
2019-02-14T11:33:06.816Z,20.33
2019-02-14T11:38:09.381Z,18.30
2019-02-14T11:43:11.888Z,19.30
2019-02-14T11:48:14.957Z,23.20
2019-02-14T11:53:18.414Z,24.50
2019-02-14T11:58:20.693Z,21.27
2019-02-14T12:03:22.884Z,23.93
2019-02-14T12:08:25.185Z,20.03
2019-02-14T12:13:27.391Z,19.90
2019-02-14T12:18:30.418Z,20.27
2019-02-14T12:23:33.366Z,18.07
2019-02-14T12:28:35.453Z,19.20
2019-02-14T12:33:39.133Z,20.50
2019-02-14T12:38:41.595Z,20.93
2019-02-14T12:43:44.424Z,21.07
2019-02-14T12:48:46.979Z,20.07
2019-02-14T12:53:49.683Z,20.87
2019-02-14T12:58:52.752Z,21.40
2019-02-14T13:03:55.483Z,20.70
2019-02-14T13:08:57.907Z,19.43
2019-02-14T13:14:00.346Z,18.23
2019-02-14T13:19:02.811Z,18.80
2019-02-14T13:24:05.274Z,26.63
2019-02-14T13:29:07.769Z,18.53
2019-02-14T13:34:10.607Z,21.73
2019-02-14T13:39:13.506Z,23.17
2019-02-14T13:44:16.841Z,23.97
2019-02-14T13:49:19.037Z,23.57
2019-02-14T13:54:21.485Z,22.10
2019-02-14T13:59:24.394Z,23.67
2019-02-14T14:04:26.686Z,20.27
2019-02-14T14:09:38.273Z,27.67
2019-02-14T14:14:33.878Z,22.30
2019-02-14T14:19:37.196Z,18.93
2019-02-14T14:24:39.706Z,28.27
2019-02-14T14:29:44.347Z,25.40
2019-02-14T14:34:46.636Z,23.97
2019-02-14T14:39:49.519Z,21.40
2019-02-14T14:44:53.136Z,21.60
2019-02-14T14:50:00.192Z,24.03
2019-02-14T14:55:03.186Z,20.90
2019-02-14T15:00:06.173Z,24.90
2019-02-14T15:05:08.905Z,25.87
2019-02-14T15:10:12.065Z,24.20
2019-02-14T15:15:15.148Z,23.30
2019-02-14T15:20:18.154Z,22.17
2019-02-14T15:25:20.899Z,24.63
2019-02-14T15:30:26.416Z,24.10
2019-02-14T15:35:30.141Z,20.23
2019-02-14T15:40:32.635Z,21.63
2019-02-14T15:45:35.272Z,25.53
2019-02-14T15:50:37.658Z,20.97
2019-02-14T15:55:41.661Z,22.60
2019-02-14T16:00:44.625Z,28.50
2019-02-14T16:05:47.727Z,25.30
2019-02-14T16:10:54.079Z,24.83
2019-02-14T16:15:56.611Z,26.53
2019-02-14T16:21:00.514Z,24.20
2019-02-14T16:26:02.829Z,28.57
2019-02-14T16:31:04.985Z,27.67
2019-02-14T16:36:07.244Z,27.17
2019-02-14T16:41:09.436Z,26.60
2019-02-14T16:46:11.635Z,26.63
2019-02-14T16:51:13.760Z,25.40
2019-02-14T16:56:15.901Z,30.50
2019-02-14T17:01:18.143Z,27.17
2019-02-14T17:06:20.327Z,32.20
2019-02-14T17:11:22.905Z,28.90
2019-02-14T17:16:26.229Z,35.60
2019-02-14T17:21:29.296Z,32.60
2019-02-14T17:26:32.110Z,32.73
2019-02-14T17:31:34.300Z,32.23
2019-02-14T17:36:36.452Z,34.60
2019-02-14T17:41:38.966Z,38.87
2019-02-14T17:46:41.579Z,36.30
2019-02-14T17:51:44.722Z,37.70
2019-02-14T17:56:47.981Z,35.70
2019-02-14T18:01:50.157Z,34.20
2019-02-14T18:06:52.637Z,34.00
2019-02-14T18:11:54.817Z,38.80
2019-02-14T18:16:57.631Z,37.63
2019-02-14T18:22:00.719Z,42.73
2019-02-14T18:27:03.336Z,42.50
2019-02-14T18:32:05.732Z,34.20
2019-02-14T18:37:08.170Z,39.93
2019-02-14T18:42:10.754Z,43.17
2019-02-14T18:47:12.932Z,32.70
2019-02-14T18:52:15.096Z,35.90
2019-02-14T18:57:17.889Z,40.13
2019-02-14T19:02:22.670Z,38.23
2019-02-14T19:07:24.891Z,37.93
2019-02-14T19:12:27.442Z,33.97
2019-02-14T19:17:31.447Z,30.73
2019-02-14T19:22:34.857Z,33.57
2019-02-14T19:27:37.433Z,27.53
2019-02-14T19:32:39.659Z,38.70
2019-02-14T19:37:41.843Z,34.50
2019-02-14T19:42:44.248Z,32.53
2019-02-14T19:47:46.370Z,34.17
2019-02-14T19:52:48.837Z,27.83
2019-02-14T19:57:51.971Z,27.83
2019-02-14T20:02:54.165Z,24.60
2019-02-14T20:07:57.082Z,32.03
2019-02-14T20:12:59.626Z,29.33
2019-02-14T20:18:01.716Z,33.47
2019-02-14T20:23:04.214Z,31.90
2019-02-14T20:28:06.385Z,28.07
2019-02-14T20:33:08.928Z,30.17
2019-02-14T20:38:11.072Z,27.13
2019-02-14T20:43:13.383Z,27.17
2019-02-14T20:48:15.747Z,32.03
2019-02-14T20:53:19.146Z,25.57
2019-02-14T20:58:22.188Z,26.90
2019-02-14T21:03:24.904Z,32.57
2019-02-14T21:08:27.769Z,26.47
2019-02-14T21:13:29.952Z,27.00
2019-02-14T21:18:32.079Z,27.47
2019-02-14T21:23:35.125Z,21.03
2019-02-14T21:28:37.449Z,23.03
2019-02-14T21:33:39.972Z,23.37
2019-02-14T21:38:42.175Z,21.97
2019-02-14T21:43:44.875Z,26.33
2019-02-14T21:48:47.756Z,35.00
2019-02-14T21:53:50.636Z,22.77
2019-02-14T21:58:53.127Z,19.40
2019-02-14T22:03:57.165Z,24.93
2019-02-14T22:08:59.506Z,20.03
2019-02-14T22:14:01.870Z,20.77
2019-02-14T22:19:06.148Z,21.97
2019-02-14T22:24:09.542Z,17.00
2019-02-14T22:29:12.558Z,22.93
2019-02-14T22:34:15.346Z,23.80
2019-02-14T22:39:17.497Z,19.20
2019-02-14T22:44:19.691Z,19.03
2019-02-14T22:49:21.916Z,24.90
2019-02-14T22:54:24.016Z,21.20
2019-02-14T22:59:26.352Z,19.90
2019-02-14T23:04:29.013Z,22.93
2019-02-14T23:09:31.709Z,22.87
2019-02-14T23:14:34.153Z,20.60
2019-02-14T23:19:36.413Z,21.37
2019-02-14T23:24:38.681Z,23.87
2019-02-14T23:29:40.866Z,27.00
2019-02-14T23:34:43.731Z,27.00
2019-02-14T23:39:47.007Z,29.43
2019-02-14T23:44:49.198Z,20.67
2019-02-14T23:49:52.809Z,21.57
2019-02-14T23:54:55.018Z,28.60
2019-02-14T23:59:58.651Z,22.03
